createdAt,value
2023-05-03T00:00:08.426Z,77018.63
2023-05-03T00:02:57.558Z,77014.56
2023-05-03T00:05:26.428Z,77022.66
2023-05-03T00:07:53.492Z,77022.66
2023-05-03T00:10:21.621Z,77018.63
2023-05-03T00:12:48.836Z,77030.78
2023-05-03T00:15:16.083Z,77030.78
2023-05-03T00:17:43.536Z,77030.78
2023-05-03T00:20:12.237Z,77030.78
2023-05-03T00:22:39.335Z,77032.81
2023-05-03T00:25:09.043Z,77038.88
2023-05-03T00:27:36.592Z,77042.94
2023-05-03T00:30:04.717Z,77047.00
2023-05-03T00:32:31.970Z,77047.00
2023-05-03T00:34:59.447Z,77042.94
2023-05-03T00:37:27.073Z,77042.94
2023-05-03T00:39:54.205Z,77040.91
2023-05-03T00:42:21.623Z,77042.94
2023-05-03T00:44:48.867Z,77051.06
2023-05-03T00:47:16.849Z,77051.06
2023-05-03T00:49:44.807Z,77071.31
2023-05-03T00:52:11.965Z,77067.28
2023-05-03T00:54:39.909Z,77057.13
2023-05-03T00:57:07.585Z,77067.28
2023-05-03T00:59:35.210Z,77079.44
2023-05-03T01:02:03.875Z,77083.50
2023-05-03T01:04:32.809Z,77095.66
2023-05-03T01:07:13.539Z,77099.72
2023-05-03T01:10:00.001Z,77115.94
2023-05-03T01:12:35.869Z,77130.13
2023-05-03T01:15:12.234Z,77132.16
2023-05-03T01:17:42.318Z,77144.31
2023-05-03T01:20:14.345Z,77144.31
2023-05-03T01:22:41.799Z,77152.41
2023-05-03T01:25:10.679Z,77160.53
2023-05-03T01:27:39.535Z,77170.66
2023-05-03T01:30:12.589Z,77168.63
2023-05-03T01:33:01.750Z,77180.81
2023-05-03T01:35:54.799Z,77188.91
2023-05-03T01:38:22.596Z,77184.84
2023-05-03T01:40:52.607Z,77197.03
2023-05-03T01:43:23.598Z,77188.91
2023-05-03T01:45:51.092Z,77180.81
2023-05-03T01:48:20.141Z,77176.75
2023-05-03T01:50:47.681Z,77172.69
2023-05-03T01:53:14.820Z,77168.63
2023-05-03T01:55:43.314Z,77160.53
2023-05-03T01:58:12.677Z,77160.53
2023-05-03T02:00:39.975Z,77156.47
2023-05-03T02:03:06.948Z,77156.47
2023-05-03T02:05:35.605Z,77148.38
2023-05-03T02:08:02.407Z,77148.38
2023-05-03T02:10:30.157Z,77148.38
2023-05-03T02:12:57.498Z,77146.34
2023-05-03T02:15:25.114Z,77136.19
2023-05-03T02:17:54.380Z,77140.25
2023-05-03T02:20:22.080Z,77148.38
2023-05-03T02:22:48.933Z,77156.47
2023-05-03T02:25:16.372Z,77160.53
2023-05-03T02:27:45.100Z,77166.59
2023-05-03T02:30:13.627Z,77164.59
2023-05-03T02:32:43.594Z,77168.63
2023-05-03T02:35:11.330Z,77164.59
2023-05-03T02:37:38.321Z,77168.63
2023-05-03T02:40:11.307Z,77176.75
2023-05-03T02:42:40.829Z,77172.69
2023-05-03T02:45:08.972Z,77184.84
2023-05-03T02:47:36.067Z,77176.75
2023-05-03T02:50:03.933Z,77176.75
2023-05-03T02:52:34.728Z,77184.84
2023-05-03T02:55:02.246Z,77188.91
2023-05-03T02:57:29.472Z,77192.97
2023-05-03T02:59:58.693Z,77197.03
2023-05-03T03:02:26.805Z,77209.19
2023-05-03T03:04:55.103Z,77207.16
2023-05-03T03:07:23.130Z,77205.13
2023-05-03T03:09:53.639Z,77205.13
2023-05-03T03:12:21.523Z,77205.13
2023-05-03T03:14:48.868Z,77205.13
2023-05-03T03:17:16.029Z,77197.03
2023-05-03T03:19:43.158Z,77195.00
2023-05-03T03:22:10.060Z,77201.06
2023-05-03T03:24:37.671Z,77205.13
2023-05-03T03:27:05.564Z,77209.19
2023-05-03T03:29:33.983Z,77209.19
2023-05-03T03:32:01.631Z,77211.22
2023-05-03T03:34:30.064Z,77217.28
2023-05-03T03:36:57.233Z,77209.19
2023-05-03T03:39:26.923Z,77217.28
2023-05-03T03:41:54.278Z,77225.41
2023-05-03T03:44:21.769Z,77231.50
2023-05-03T03:46:49.344Z,77229.47
2023-05-03T03:49:18.214Z,77229.47
2023-05-03T03:51:45.920Z,77215.28
2023-05-03T03:54:14.311Z,77229.47
2023-05-03T03:56:45.707Z,77227.44
2023-05-03T03:59:13.721Z,77229.47
2023-05-03T04:01:40.867Z,77229.47
2023-05-03T04:04:09.391Z,77225.41
2023-05-03T04:06:36.487Z,77221.34
2023-05-03T04:09:07.996Z,77225.41
2023-05-03T04:11:36.041Z,77229.47
2023-05-03T04:14:04.750Z,77241.63
2023-05-03T04:16:33.363Z,77249.75
2023-05-03T04:19:02.753Z,77249.75
2023-05-03T04:21:32.389Z,77241.63
2023-05-03T04:24:00.766Z,77245.69
2023-05-03T04:26:31.443Z,77241.63
2023-05-03T04:29:07.127Z,77253.78
2023-05-03T04:31:36.003Z,77261.91
2023-05-03T04:34:03.338Z,77270.00
2023-05-03T04:36:30.601Z,77263.94
2023-05-03T04:38:59.318Z,77265.97
2023-05-03T04:41:26.382Z,77270.00
2023-05-03T04:43:55.122Z,77257.84
2023-05-03T04:46:22.294Z,77257.84
2023-05-03T04:48:51.506Z,77255.81
2023-05-03T04:51:18.664Z,77257.84
2023-05-03T04:53:47.680Z,77253.78
2023-05-03T04:56:19.827Z,77241.63
2023-05-03T04:58:47.269Z,77209.19
2023-05-03T05:01:16.330Z,77152.41
2023-05-03T05:03:44.383Z,77128.09
2023-05-03T05:06:17.849Z,77170.66
2023-05-03T05:08:45.710Z,77201.06
2023-05-03T05:11:15.052Z,77225.41
2023-05-03T05:13:42.707Z,77233.53
2023-05-03T05:16:09.727Z,77229.47
2023-05-03T05:18:39.623Z,77209.19
2023-05-03T05:21:09.145Z,77217.28
2023-05-03T05:23:38.190Z,77217.28
2023-05-03T05:26:05.414Z,77225.41
2023-05-03T05:28:33.902Z,77237.56
2023-05-03T05:31:01.641Z,77227.44
2023-05-03T05:33:29.881Z,77213.25
2023-05-03T05:35:58.537Z,77221.34
2023-05-03T05:38:26.580Z,77227.44
2023-05-03T05:40:56.752Z,77233.53
2023-05-03T05:43:24.956Z,77225.41
2023-05-03T05:45:51.994Z,77223.38
2023-05-03T05:48:20.514Z,77233.53
2023-05-03T05:50:49.032Z,77241.63
2023-05-03T05:53:16.764Z,77245.69
2023-05-03T05:55:51.324Z,77233.53
2023-05-03T05:58:23.250Z,77221.34
2023-05-03T06:00:57.540Z,77219.31
2023-05-03T06:03:25.161Z,77227.44
2023-05-03T06:05:52.128Z,77225.41
2023-05-03T06:08:21.243Z,77217.28
2023-05-03T06:10:48.416Z,77209.19
2023-05-03T06:13:15.810Z,77205.13
2023-05-03T06:15:46.485Z,77201.06
2023-05-03T06:18:13.903Z,77197.03
2023-05-03T06:20:41.020Z,77201.06
2023-05-03T06:23:08.683Z,77195.00
2023-05-03T06:25:37.765Z,77192.97
2023-05-03T06:28:05.401Z,77192.97
2023-05-03T06:30:35.295Z,77188.91
2023-05-03T06:33:08.252Z,77174.72
2023-05-03T06:35:35.998Z,77168.63
2023-05-03T06:38:03.264Z,77168.63
2023-05-03T06:40:31.115Z,77168.63
2023-05-03T06:42:59.689Z,77156.47
2023-05-03T06:45:39.959Z,77156.47
2023-05-03T06:48:07.907Z,77142.28
2023-05-03T06:50:34.999Z,77146.34
2023-05-03T06:53:02.768Z,77144.31
2023-05-03T06:55:30.057Z,77148.38
2023-05-03T06:57:57.710Z,77160.53
2023-05-03T07:00:26.093Z,77144.31
2023-05-03T07:02:54.827Z,77128.09
2023-05-03T07:05:23.476Z,77124.03
2023-05-03T07:07:52.169Z,77119.97
2023-05-03T07:10:20.972Z,77103.75
2023-05-03T07:12:48.520Z,77111.88
2023-05-03T07:15:16.051Z,77111.88
2023-05-03T07:17:44.518Z,77101.72
2023-05-03T07:20:13.268Z,77099.72
2023-05-03T07:22:40.879Z,77095.66
2023-05-03T07:25:09.135Z,77099.72
2023-05-03T07:27:37.268Z,77089.56
2023-05-03T07:30:05.438Z,77079.44
2023-05-03T07:32:33.454Z,77065.25
2023-05-03T07:35:00.693Z,77042.94
2023-05-03T07:37:28.378Z,77018.63
2023-05-03T07:39:55.967Z,76998.34
2023-05-03T07:42:23.679Z,76961.84
2023-05-03T07:44:52.412Z,76943.59
2023-05-03T07:47:20.330Z,76941.56
2023-05-03T07:49:48.064Z,76933.47
2023-05-03T07:52:15.719Z,76915.22
2023-05-03T07:54:45.917Z,76925.34
2023-05-03T07:57:14.988Z,76941.56
2023-05-03T07:59:44.988Z,76941.56
2023-05-03T08:02:12.998Z,76937.53
2023-05-03T08:04:41.741Z,76933.47
2023-05-03T08:07:09.899Z,76917.25
2023-05-03T08:09:36.965Z,76913.19
2023-05-03T08:12:04.600Z,76937.53
2023-05-03T08:14:31.531Z,76953.75
2023-05-03T08:16:59.966Z,76961.84
2023-05-03T08:19:27.007Z,76945.63
2023-05-03T08:21:55.761Z,76911.16
2023-05-03T08:24:23.365Z,76896.97
2023-05-03T08:26:50.878Z,76888.88
2023-05-03T08:29:17.755Z,76880.75
2023-05-03T08:31:47.416Z,76876.69
2023-05-03T08:34:15.804Z,76876.69
2023-05-03T08:36:44.729Z,76880.75
2023-05-03T08:39:12.265Z,76911.16
2023-05-03T08:41:39.909Z,76941.56
2023-05-03T08:44:08.850Z,76953.75
2023-05-03T08:46:38.571Z,76984.16
2023-05-03T08:49:09.649Z,76986.16
2023-05-03T08:51:42.225Z,76957.78
2023-05-03T08:54:09.441Z,76913.19
2023-05-03T08:56:42.422Z,76860.47
2023-05-03T08:59:11.836Z,76840.22
2023-05-03T09:01:41.080Z,76866.56
2023-05-03T09:04:10.148Z,76905.09
2023-05-03T09:06:38.620Z,76949.69
2023-05-03T09:09:08.657Z,76978.06
2023-05-03T09:11:38.287Z,76945.63
2023-05-03T09:14:16.620Z,76874.66
2023-05-03T09:16:46.699Z,76828.03
2023-05-03T09:19:15.877Z,76840.22
2023-05-03T09:21:47.413Z,76850.34
2023-05-03T09:24:19.223Z,76852.38
2023-05-03T09:26:51.137Z,76824.00
2023-05-03T09:29:30.229Z,76799.66
2023-05-03T09:32:10.997Z,76815.88
2023-05-03T09:34:38.317Z,76864.53
2023-05-03T09:37:06.611Z,76901.03
2023-05-03T09:39:34.791Z,76911.16
2023-05-03T09:42:21.773Z,76872.66
2023-05-03T09:44:54.295Z,76819.94
2023-05-03T09:47:24.819Z,76815.88
2023-05-03T09:49:51.889Z,76876.69
2023-05-03T09:52:22.769Z,76929.41
2023-05-03T09:54:52.178Z,76941.56
2023-05-03T09:57:19.952Z,76929.41
2023-05-03T09:59:47.539Z,76941.56
2023-05-03T10:02:16.534Z,76945.63
2023-05-03T10:04:50.861Z,76925.34
2023-05-03T10:07:19.059Z,76925.34
2023-05-03T10:09:48.355Z,76921.31
2023-05-03T10:12:19.503Z,76925.34
2023-05-03T10:14:48.918Z,76909.13
2023-05-03T10:17:46.472Z,76888.88
2023-05-03T10:20:41.542Z,76882.78
2023-05-03T10:23:12.113Z,76866.56
2023-05-03T10:26:00.445Z,76848.31
2023-05-03T10:28:29.867Z,76815.88
2023-05-03T10:30:57.200Z,76824.00
2023-05-03T10:33:37.206Z,76807.78
2023-05-03T10:36:10.923Z,76771.28
2023-05-03T10:38:38.612Z,76759.13
2023-05-03T10:41:07.380Z,76751.00
2023-05-03T10:43:35.680Z,76746.97
2023-05-03T10:46:05.558Z,76732.75
2023-05-03T10:48:35.054Z,76738.84
2023-05-03T10:51:30.878Z,76767.22
2023-05-03T10:53:58.644Z,76801.69
2023-05-03T10:56:26.004Z,76830.06
2023-05-03T10:58:57.140Z,76807.78
2023-05-03T11:01:27.554Z,76795.59
2023-05-03T11:04:08.154Z,76785.47
2023-05-03T11:06:41.622Z,76775.34
2023-05-03T11:09:10.429Z,76763.16
2023-05-03T11:11:39.887Z,76775.34
2023-05-03T11:14:08.896Z,76799.66
2023-05-03T11:16:37.023Z,76771.28
2023-05-03T11:19:06.191Z,76734.78
2023-05-03T11:21:33.589Z,76726.69
2023-05-03T11:24:02.003Z,76694.25
2023-05-03T11:26:28.961Z,76682.09
2023-05-03T11:28:56.278Z,76690.19
2023-05-03T11:31:24.063Z,76665.88
2023-05-03T11:33:51.572Z,76661.81
2023-05-03T11:36:18.945Z,76698.31
2023-05-03T11:38:46.313Z,76694.25
2023-05-03T11:41:16.831Z,76653.72
2023-05-03T11:43:52.825Z,76625.31
2023-05-03T11:46:28.361Z,76633.44
2023-05-03T11:48:56.793Z,76653.72
2023-05-03T11:51:24.962Z,76690.19
2023-05-03T11:53:52.426Z,76734.78
2023-05-03T11:56:20.985Z,76767.22
2023-05-03T11:58:58.501Z,76763.16
2023-05-03T12:01:27.749Z,76742.91
2023-05-03T12:03:57.958Z,76726.69
2023-05-03T12:06:30.763Z,76706.41
2023-05-03T12:09:00.794Z,76682.09
2023-05-03T12:11:30.759Z,76678.03
2023-05-03T12:14:02.482Z,76669.94
2023-05-03T12:16:47.554Z,76633.44
2023-05-03T12:22:23.687Z,76603.03
2023-05-03T12:24:54.005Z,76572.63
2023-05-03T12:27:23.464Z,76580.72
2023-05-03T12:29:51.876Z,76596.94
2023-05-03T12:32:21.680Z,76635.47
2023-05-03T12:34:51.973Z,76667.91
2023-05-03T12:37:22.052Z,76645.59
2023-05-03T12:40:01.584Z,76609.09
2023-05-03T12:42:37.397Z,76568.56
2023-05-03T12:45:06.738Z,76552.34
2023-05-03T12:47:37.427Z,76540.19
2023-05-03T12:50:11.942Z,76552.34
2023-05-03T12:52:39.801Z,76548.31
2023-05-03T12:55:11.244Z,76560.47
2023-05-03T12:57:39.264Z,76560.47
2023-05-03T13:00:14.556Z,76568.56
2023-05-03T13:03:20.498Z,76584.78
2023-05-03T13:05:35.020Z,76560.47
2023-05-03T13:08:09.061Z,76556.41
2023-05-03T13:10:39.249Z,76552.34
2023-05-03T13:13:07.163Z,76578.69
2023-05-03T13:15:36.789Z,76568.56
2023-05-03T13:18:07.662Z,76572.63
2023-05-03T13:20:36.291Z,76586.81
2023-05-03T13:23:05.112Z,76609.09
2023-05-03T13:25:33.135Z,76621.28
2023-05-03T13:28:01.858Z,76596.94
2023-05-03T13:30:30.088Z,76578.69
2023-05-03T13:32:57.290Z,76568.56
2023-05-03T13:35:25.017Z,76560.47
2023-05-03T13:37:53.831Z,76528.03
2023-05-03T13:40:22.072Z,76526.00
2023-05-03T13:42:48.943Z,76572.63
2023-05-03T13:45:16.704Z,76605.06
2023-05-03T13:48:04.903Z,76645.59
2023-05-03T13:50:31.562Z,76665.88
2023-05-03T13:52:59.000Z,76682.09
2023-05-03T13:55:26.825Z,76680.06
2023-05-03T13:57:53.731Z,76690.19
2023-05-03T14:00:21.499Z,76698.31
2023-05-03T14:02:49.293Z,76700.34
2023-05-03T14:05:19.676Z,76673.97
2023-05-03T14:07:46.552Z,76637.50
2023-05-03T14:10:13.942Z,76611.13
2023-05-03T14:12:41.525Z,76601.00
2023-05-03T14:15:09.280Z,76556.41
2023-05-03T14:17:36.254Z,76497.63
2023-05-03T14:20:07.860Z,76428.69
2023-05-03T14:22:35.217Z,76398.28
2023-05-03T14:25:02.672Z,76416.53
2023-05-03T14:27:30.893Z,76420.59
2023-05-03T14:29:58.108Z,76451.00
2023-05-03T14:32:25.667Z,76455.06
2023-05-03T14:34:53.266Z,76475.31
2023-05-03T14:37:20.235Z,76481.41
2023-05-03T14:39:47.509Z,76483.44
2023-05-03T14:42:14.781Z,76499.66
2023-05-03T14:44:42.733Z,76519.91
2023-05-03T14:47:11.221Z,76552.34
2023-05-03T14:49:41.553Z,76548.31
2023-05-03T14:52:09.192Z,76552.34
2023-05-03T14:54:38.480Z,76544.25
2023-05-03T14:57:06.075Z,76505.72
2023-05-03T14:59:33.811Z,76453.03
2023-05-03T15:02:01.737Z,76349.66
2023-05-03T15:04:29.785Z,76074.00
2023-05-03T15:07:03.930Z,75984.81
2023-05-03T15:09:31.823Z,76122.63
2023-05-03T15:11:59.419Z,76258.44
2023-05-03T15:14:27.043Z,76382.09
2023-05-03T15:16:54.146Z,76471.28
2023-05-03T15:19:22.237Z,76509.78
2023-05-03T15:21:51.810Z,76532.09
2023-05-03T15:24:19.320Z,76483.44
2023-05-03T15:26:47.064Z,76258.44
2023-05-03T15:29:15.783Z,76021.31
2023-05-03T15:31:43.874Z,75974.69
2023-05-03T15:34:12.592Z,76122.63
2023-05-03T15:36:40.646Z,76252.34
2023-05-03T15:39:09.393Z,76335.47
2023-05-03T15:41:36.471Z,76390.19
2023-05-03T15:44:05.556Z,76426.69
2023-05-03T15:46:33.740Z,76461.13
2023-05-03T15:49:01.280Z,76511.81
2023-05-03T15:51:29.386Z,76544.25
2023-05-03T15:53:57.155Z,76558.44
2023-05-03T15:56:24.183Z,76556.41
2023-05-03T15:58:52.388Z,76572.63
2023-05-03T16:01:19.416Z,76588.84
2023-05-03T16:03:48.221Z,76588.84
2023-05-03T16:06:18.288Z,76584.78
2023-05-03T16:08:46.027Z,76576.69
2023-05-03T16:11:13.494Z,76552.34
2023-05-03T16:13:41.048Z,76540.19
2023-05-03T16:16:08.142Z,76552.34
2023-05-03T16:18:35.608Z,76558.44
2023-05-03T16:21:02.973Z,76552.34
2023-05-03T16:23:30.539Z,76572.63
2023-05-03T16:25:57.762Z,76582.75
2023-05-03T16:28:25.394Z,76605.06
2023-05-03T16:30:52.376Z,76635.47
2023-05-03T16:33:21.400Z,76661.81
2023-05-03T16:35:49.975Z,76678.03
2023-05-03T16:38:17.662Z,76690.19
2023-05-03T16:40:46.148Z,76661.81
2023-05-03T16:43:15.716Z,76584.78
2023-05-03T16:45:42.881Z,76586.81
2023-05-03T16:48:11.299Z,76625.31
2023-05-03T16:50:38.753Z,76552.34
2023-05-03T16:53:06.649Z,76530.06
2023-05-03T16:55:33.629Z,76574.66
2023-05-03T16:58:01.449Z,76621.28
2023-05-03T17:00:29.010Z,76669.94
2023-05-03T17:02:56.779Z,76690.19
2023-05-03T17:05:25.363Z,76710.47
2023-05-03T17:07:52.699Z,76730.75
2023-05-03T17:10:19.850Z,76730.75
2023-05-03T17:12:48.083Z,76742.91
2023-05-03T17:15:15.124Z,76751.00
2023-05-03T17:17:42.515Z,76763.16
2023-05-03T17:20:10.960Z,76775.34
2023-05-03T17:22:39.292Z,76795.59
2023-05-03T17:25:08.165Z,76797.63
2023-05-03T17:27:39.337Z,76811.81
2023-05-03T17:30:07.388Z,76819.94
2023-05-03T17:32:35.045Z,76830.06
2023-05-03T17:35:02.343Z,76842.22
2023-05-03T17:37:29.692Z,76846.28
2023-05-03T17:39:58.086Z,76860.47
2023-05-03T17:42:25.529Z,76868.59
2023-05-03T17:44:54.754Z,76880.75
2023-05-03T17:47:23.009Z,76884.81
2023-05-03T17:49:50.745Z,76901.03
2023-05-03T17:52:18.156Z,76901.03
2023-05-03T17:54:46.270Z,76909.13
2023-05-03T17:57:13.807Z,76921.31
2023-05-03T17:59:40.862Z,76925.34
2023-05-03T18:02:09.108Z,76931.44
2023-05-03T18:04:36.297Z,76937.53
2023-05-03T18:07:04.186Z,76945.63
2023-05-03T18:09:33.049Z,76949.69
2023-05-03T18:12:01.989Z,76961.84
2023-05-03T18:14:29.097Z,76969.94
2023-05-03T18:16:56.679Z,76982.13
2023-05-03T18:19:24.106Z,76990.22
2023-05-03T18:21:51.584Z,77002.41
2023-05-03T18:24:18.521Z,77006.44
2023-05-03T18:26:47.343Z,77006.44
2023-05-03T18:29:20.398Z,77018.63
2023-05-03T18:31:58.806Z,77026.72
2023-05-03T18:34:30.356Z,77034.84
2023-05-03T18:37:05.849Z,77044.97
2023-05-03T18:39:36.890Z,77044.97
2023-05-03T18:42:12.159Z,77051.06
2023-05-03T18:44:47.451Z,77059.16
2023-05-03T18:47:26.002Z,77071.31
2023-05-03T18:49:56.933Z,77067.28
2023-05-03T18:52:32.390Z,77079.44
2023-05-03T18:55:03.673Z,77083.50
2023-05-03T18:57:39.343Z,77095.66
2023-05-03T19:00:11.364Z,77099.72
2023-05-03T19:02:46.824Z,77103.75
2023-05-03T19:05:24.898Z,77113.91
2023-05-03T19:08:04.388Z,77119.97
2023-05-03T19:10:39.595Z,77134.16
2023-05-03T19:13:15.982Z,77144.31
2023-05-03T19:15:47.044Z,77162.56
2023-05-03T19:18:22.468Z,77180.81
2023-05-03T19:20:53.744Z,77188.91
2023-05-03T19:23:29.144Z,77205.13
2023-05-03T19:26:04.335Z,77213.25
2023-05-03T19:28:35.999Z,77239.59
2023-05-03T19:31:11.144Z,77239.59
2023-05-03T19:33:46.585Z,77249.75
2023-05-03T19:36:17.589Z,77257.84
2023-05-03T19:38:52.850Z,77257.84
2023-05-03T19:41:23.915Z,77270.00
2023-05-03T19:43:59.621Z,77274.06
2023-05-03T19:46:35.139Z,77284.22
2023-05-03T19:49:06.607Z,77296.38
2023-05-03T19:51:42.692Z,77298.41
2023-05-03T19:54:14.052Z,77310.56
2023-05-03T19:56:44.988Z,77318.66
2023-05-03T19:59:20.292Z,77320.69
2023-05-03T20:01:55.669Z,77324.75
2023-05-03T20:04:30.919Z,77334.91
2023-05-03T20:07:05.892Z,77338.94
2023-05-03T20:09:37.093Z,77351.13
2023-05-03T20:12:12.173Z,77361.25
2023-05-03T20:14:47.504Z,77367.34
2023-05-03T20:17:22.717Z,77373.41
2023-05-03T20:19:58.205Z,77379.50
2023-05-03T20:22:33.184Z,77387.59
2023-05-03T20:25:08.890Z,77383.56
2023-05-03T20:27:44.013Z,77399.78
2023-05-03T20:30:15.518Z,77399.78
2023-05-03T20:32:46.631Z,77403.84
2023-05-03T20:35:18.385Z,77411.94
2023-05-03T20:37:49.812Z,77424.09
2023-05-03T20:40:25.649Z,77428.16
2023-05-03T20:43:00.818Z,77440.31
2023-05-03T20:45:36.230Z,77448.44
2023-05-03T20:48:08.049Z,77456.53
2023-05-03T20:50:35.618Z,77466.69
2023-05-03T20:53:03.003Z,77460.59
2023-05-03T20:55:30.444Z,77460.59
2023-05-03T20:57:57.695Z,77468.72
2023-05-03T21:00:26.507Z,77468.72
2023-05-03T21:02:54.782Z,77468.72
2023-05-03T21:05:22.852Z,77466.69
2023-05-03T21:07:49.972Z,77458.56
2023-05-03T21:10:17.226Z,77460.59
2023-05-03T21:12:44.546Z,77466.69
2023-05-03T21:15:12.154Z,77454.53
2023-05-03T21:17:39.189Z,77440.31
2023-05-03T21:20:08.170Z,77444.38
2023-05-03T21:22:35.135Z,77450.47
2023-05-03T21:25:02.511Z,77456.53
2023-05-03T21:27:29.558Z,77468.72
2023-05-03T21:29:57.257Z,77480.88
2023-05-03T21:32:24.241Z,77478.84
2023-05-03T21:34:52.542Z,77476.81
2023-05-03T21:37:20.402Z,77486.97
2023-05-03T21:39:58.025Z,77484.94
2023-05-03T21:42:33.086Z,77480.88
2023-05-03T21:45:00.279Z,77489.00
2023-05-03T21:47:28.064Z,77489.00
2023-05-03T21:49:55.898Z,77493.03
2023-05-03T21:52:23.274Z,77503.19
2023-05-03T21:54:52.770Z,77505.22
2023-05-03T21:57:19.755Z,77509.25
2023-05-03T21:59:47.456Z,77513.31
2023-05-03T22:02:14.456Z,77521.44
2023-05-03T22:04:42.002Z,77529.53
2023-05-03T22:07:09.236Z,77525.47
2023-05-03T22:09:37.071Z,77511.28
2023-05-03T22:12:19.052Z,77489.00
2023-05-03T22:14:49.874Z,77482.91
2023-05-03T22:17:16.803Z,77484.94
2023-05-03T22:19:44.554Z,77489.00
2023-05-03T22:22:11.597Z,77501.16
2023-05-03T22:24:38.964Z,77505.22
2023-05-03T22:27:05.931Z,77513.31
2023-05-03T22:29:33.302Z,77525.47
2023-05-03T22:32:00.809Z,77535.63
2023-05-03T22:34:28.517Z,77537.66
2023-05-03T22:36:55.974Z,77545.75
2023-05-03T22:39:23.640Z,77547.78
2023-05-03T22:41:50.632Z,77557.94
2023-05-03T22:44:17.993Z,77553.88
2023-05-03T22:46:44.986Z,77557.94
2023-05-03T22:49:12.529Z,77564.00
2023-05-03T22:51:39.523Z,77570.09
2023-05-03T22:54:07.350Z,77578.22
2023-05-03T22:56:34.319Z,77580.22
2023-05-03T22:59:01.582Z,77582.25
2023-05-03T23:01:28.708Z,77590.38
2023-05-03T23:03:57.395Z,77594.44
2023-05-03T23:06:25.122Z,77594.44
2023-05-03T23:08:52.561Z,77598.47
2023-05-03T23:11:21.232Z,77606.59
2023-05-03T23:13:48.370Z,77614.69
2023-05-03T23:16:15.702Z,77614.69
2023-05-03T23:18:43.261Z,77618.75
2023-05-03T23:21:10.389Z,77628.91
2023-05-03T23:23:38.105Z,77630.94
2023-05-03T23:26:05.141Z,77639.03
2023-05-03T23:28:33.023Z,77639.03
2023-05-03T23:31:00.628Z,77647.16
2023-05-03T23:33:28.485Z,77651.19
2023-05-03T23:35:55.639Z,77663.38
2023-05-03T23:38:23.040Z,77657.28
2023-05-03T23:40:50.366Z,77655.25
2023-05-03T23:43:17.590Z,77659.31
2023-05-03T23:45:44.694Z,77655.25
2023-05-03T23:48:12.186Z,77659.31
2023-05-03T23:50:39.573Z,77651.19
2023-05-03T23:53:07.366Z,77655.25
2023-05-03T23:55:34.507Z,77663.38
2023-05-03T23:58:01.692Z,77667.44
